Prairie City, Iowa
Current Conditions -  °F | °C
As of 11:15 PM on Monday 22 Dec 2014 (Local Time) from KTNU Reporting Station
Unknown Precip Unknown Precip  
Wind Chill: 33°   Ceiling: 300
Heat Index: 39°   Visibility: 4mi
Dew Point: 39°   Wind: 9mph
Humidity: 100%   Direction: 60°ENE
Pressure: 29.44"   Gusts: NA
Location:  41.6°N, 93.24°W
Report Text: KTNU 230515Z AUTO 06008KT 4SM -UP OVC003 04/04 A2944 RMK AO2
Loading
Personal Weather Stations






























Interactive Weather Map New forecast layout! Learn more

10-Day Weather Forecast

Advertisements
Track Severe Weather on mobile